Miguel Oliver — ECLX — position and weather

sailwx.info

Track history (hours):
 
Tides and Currents Weather Stations Pressure Air Temp Water Temp Dewpoint Dewpoint Depression Visibility Wind Speed Wind Dir Waves Ship Positions

Oceanographic research ship Miguel Oliver (Spain)

Ship's website: http://www.mapa.es/es/pesca/pags/miguel_web/index.htm

Last reported at 2016-Jul-18 09:18 UTC. Time now 2016-Jul-24 01:07 UTC.
Position N 36°59' W 001°52'.

Length 70 m; draft 4.8 m.

Type: Other ship. MMSI: 225322000.

Date/timePositionNaut miles runAvg speedWind from/ knotsBaromVisibWave heightAir tempDewpointWater temp
2016-Jul-18 09:18N 36°59' W 001°52'2 2.0
2016-Jul-18 08:30N 36°57' W 001°52'57 1.6
2016-Jul-16 22:08N 37°32' W 000°55'1 0.9
2016-Jul-16 21:19N 37°31' W 000°54'1 1.0
2016-Jul-16 20:33N 37°31' W 000°54'3 2.9
2016-Jul-16 19:29N 37°31' W 000°58'1 0.2
2016-Jul-16 12:32N 37°30' W 000°59'4 4.3
2016-Jul-16 11:33N 37°31' W 000°54'4 4.5
2016-Jul-16 10:33N 37°32' W 000°48'6 5.6
2016-Jul-16 09:33N 37°32' W 000°41'4 3.8
2016-Jul-16 08:32N 37°35' W 000°42'4 4.0
2016-Jul-16 07:33N 37°33' W 000°46'6 5.8
2016-Jul-16 06:33N 37°37' W 000°40'4 2.2
2016-Jul-16 04:33N 37°34' W 000°36'4 3.9
2016-Jul-16 03:33N 37°37' W 000°34'3 2.9
2016-Jul-16 02:23N 37°41' W 000°35'1 1.3
2016-Jul-16 01:33N 37°40' W 000°34'2 1.8
2016-Jul-16 00:33N 37°41' W 000°33'4 4.4
2016-Jul-15 23:33N 37°44' W 000°29'4 4.3
2016-Jul-15 22:33N 37°48' W 000°26'1 1.1
2016-Jul-15 21:26N 37°48' W 000°25'1 1.0
2016-Jul-15 20:33N 37°48' W 000°24'1 0.9
2016-Jul-15 19:28N 37°47' W 000°23'4 4.1
2016-Jul-15 18:33N 37°45' W 000°27'6 5.8
2016-Jul-15 17:33N 37°43' W 000°34'7 7.1
2016-Jul-15 16:33N 37°47' W 000°42'9 8.7
2016-Jul-15 15:33N 37°42' W 000°32'5 5.2
2016-Jul-15 14:33N 37°43' W 000°26'5 5.2
2016-Jul-15 13:33N 37°48' W 000°25'1 0.3
2016-Jul-15 11:33N 37°48' W 000°25'9 9.3
2016-Jul-15 10:33N 37°53' W 000°35'4 3.7
2016-Jul-15 09:33N 37°56' W 000°39'9 9.3
2016-Jul-15 08:33N 38°05' W 000°35'10 8.2
2016-Jul-15 07:21N 38°11' W 000°25'13 0.3
2016-Jul-13 15:33N 37°57' W 000°24'9 9.0
2016-Jul-13 14:33N 38°02' W 000°34'5 4.9
2016-Jul-13 13:33N 38°07' W 000°34'4 3.9
2016-Jul-13 12:31N 38°03' W 000°35'8 7.0
2016-Jul-13 11:25N 38°08' W 000°28'11 9.9
2016-Jul-13 10:21N 38°03' W 000°17'8 9.2
2016-Jul-13 09:31N 38°09' W 000°10'14 1.3
2016-Jul-12 23:19N 38°20' W 000°20'3 4.2
2016-Jul-12 22:31N 38°23' W 000°20'1 0.5
2016-Jul-12 20:16N 38°24' W 000°21'0 0.4
2016-Jul-12 19:31N 38°24' W 000°21'0 0.2
2016-Jul-12 18:21N 38°24' W 000°20'7 6.1
2016-Jul-12 17:15N 38°22' W 000°12'6 8.6
2016-Jul-12 16:32N 38°19' W 000°05'0 0.4
2016-Jul-12 15:33N 38°20' W 000°05'7 7.0
2016-Jul-12 14:33N 38°14' E 000°00'3 3.3
2016-Jul-12 13:32N 38°11' E 000°04'8 8.0
2016-Jul-12 12:33N 38°16' W 000°05'1010.1
2016-Jul-12 11:32N 38°21' W 000°16'5 5.4
2016-Jul-12 10:33N 38°27' W 000°17'3 2.6
2016-Jul-12 09:33N 38°28' W 000°14'18 6.2
2016-Jul-12 06:32N 38°19' E 000°07'5 5.5
2016-Jul-12 05:33N 38°16' E 000°13'1 1.2
2016-Jul-12 04:31N 38°17' E 000°12'1 0.5
2016-Jul-12 03:31N 38°17' E 000°12'2 1.9
2016-Jul-12 02:21N 38°19' E 000°11'5 6.5
2016-Jul-12 01:33N 38°24' E 000°10'5 5.1
2016-Jul-12 00:33N 38°29' E 000°10'7 6.7
2016-Jul-11 23:33N 38°36' E 000°08'2 2.1
2016-Jul-11 22:31N 38°38' E 000°09'1 1.1
2016-Jul-11 21:33N 38°37' E 000°08'10 9.8
2016-Jul-11 20:33N 38°27' E 000°09'8 7.4
2016-Jul-11 19:24N 38°23' E 000°18'1 1.3
2016-Jul-11 18:33N 38°23' E 000°17'1010.1
2016-Jul-11 17:33N 38°29' E 000°06'8 7.6
2016-Jul-11 16:33N 38°34' W 000°01'7 7.1
2016-Jul-11 15:33N 38°38' E 000°07'9 9.5
2016-Jul-11 14:33N 38°33' E 000°17'6 5.6
2016-Jul-11 13:33N 38°31' E 000°24'4 3.7
2016-Jul-11 12:33N 38°28' E 000°21'4 3.7
2016-Jul-11 11:32N 38°31' E 000°23'4 3.6
2016-Jul-11 10:33N 38°30' E 000°28'8 8.0
2016-Jul-11 09:33N 38°38' E 000°25'10 9.7
2016-Jul-11 08:31N 38°44' E 000°15'0 0.4
2016-Jul-11 07:30N 38°44' E 000°15'0 0.1
2016-Jul-11 06:33N 38°44' E 000°15'1 0.3
2016-Jul-11 03:31N 38°43' E 000°15'12 1.6
2016-Jul-10 19:32N 38°56' E 000°12'9 8.8
2016-Jul-10 18:28N 38°52' E 000°24'5 5.2
2016-Jul-10 17:32N 38°48' E 000°27'6 4.1
2016-Jul-10 16:07N 38°45' E 000°21'6 3.8
2016-Jul-10 14:30N 38°51' E 000°23'11 3.8
2016-Jul-10 11:30N 38°54' E 000°09'34 1.3
2016-Jul-09 08:22N 39°24' W 000°13'7 8.9
2016-Jul-09 07:33N 39°31' W 000°14'25 2.3
2016-Jul-08 20:32N 39°45' E 000°13'8 7.8
2016-Jul-08 19:33N 39°43' E 000°03'8 7.5
2016-Jul-08 18:30N 39°40' W 000°06'5 1.5
2016-Jul-08 15:05N 39°35' W 000°03'8 2.7
2016-Jul-08 12:06N 39°41' E 000°04'5 9.7
2016-Jul-08 11:33N 39°44' W 000°01'8 7.2
2016-Jul-08 10:23N 39°52' E 000°01'  
Track history (hours):
 
Tides and Currents Weather Stations Pressure Air Temp Water Temp Dewpoint Dewpoint Depression Visibility Wind Speed Wind Dir Waves Ship Positions

Oceanographic research ship Miguel Oliver (Spain)

Ship's website: http://www.mapa.es/es/pesca/pags/miguel_web/index.htm

Last reported at 2016-Jul-18 09:18 UTC. Time now 2016-Jul-24 01:07 UTC.
Position N 36°59' W 001°52'.

Length 70 m; draft 4.8 m.

Type: Other ship. MMSI: 225322000.

Date/timePositionNaut miles runAvg speedWind from/ knotsBaromVisibWave heightAir tempDewpointWater temp
2016-Jul-18 09:18N 36°59' W 001°52'2 2.0
2016-Jul-18 08:30N 36°57' W 001°52'57 1.6
2016-Jul-16 22:08N 37°32' W 000°55'1 0.9
2016-Jul-16 21:19N 37°31' W 000°54'1 1.0
2016-Jul-16 20:33N 37°31' W 000°54'3 2.9
2016-Jul-16 19:29N 37°31' W 000°58'1 0.2
2016-Jul-16 12:32N 37°30' W 000°59'4 4.3
2016-Jul-16 11:33N 37°31' W 000°54'4 4.5
2016-Jul-16 10:33N 37°32' W 000°48'6 5.6
2016-Jul-16 09:33N 37°32' W 000°41'4 3.8
2016-Jul-16 08:32N 37°35' W 000°42'4 4.0
2016-Jul-16 07:33N 37°33' W 000°46'6 5.8
2016-Jul-16 06:33N 37°37' W 000°40'4 2.2
2016-Jul-16 04:33N 37°34' W 000°36'4 3.9
2016-Jul-16 03:33N 37°37' W 000°34'3 2.9
2016-Jul-16 02:23N 37°41' W 000°35'1 1.3
2016-Jul-16 01:33N 37°40' W 000°34'2 1.8
2016-Jul-16 00:33N 37°41' W 000°33'4 4.4
2016-Jul-15 23:33N 37°44' W 000°29'4 4.3
2016-Jul-15 22:33N 37°48' W 000°26'1 1.1
2016-Jul-15 21:26N 37°48' W 000°25'1 1.0
2016-Jul-15 20:33N 37°48' W 000°24'1 0.9
2016-Jul-15 19:28N 37°47' W 000°23'4 4.1
2016-Jul-15 18:33N 37°45' W 000°27'6 5.8
2016-Jul-15 17:33N 37°43' W 000°34'7 7.1
2016-Jul-15 16:33N 37°47' W 000°42'9 8.7
2016-Jul-15 15:33N 37°42' W 000°32'5 5.2
2016-Jul-15 14:33N 37°43' W 000°26'5 5.2
2016-Jul-15 13:33N 37°48' W 000°25'1 0.3
2016-Jul-15 11:33N 37°48' W 000°25'9 9.3
2016-Jul-15 10:33N 37°53' W 000°35'4 3.7
2016-Jul-15 09:33N 37°56' W 000°39'9 9.3
2016-Jul-15 08:33N 38°05' W 000°35'10 8.2
2016-Jul-15 07:21N 38°11' W 000°25'13 0.3
2016-Jul-13 15:33N 37°57' W 000°24'9 9.0
2016-Jul-13 14:33N 38°02' W 000°34'5 4.9
2016-Jul-13 13:33N 38°07' W 000°34'4 3.9
2016-Jul-13 12:31N 38°03' W 000°35'8 7.0
2016-Jul-13 11:25N 38°08' W 000°28'11 9.9
2016-Jul-13 10:21N 38°03' W 000°17'8 9.2
2016-Jul-13 09:31N 38°09' W 000°10'14 1.3
2016-Jul-12 23:19N 38°20' W 000°20'3 4.2
2016-Jul-12 22:31N 38°23' W 000°20'1 0.5
2016-Jul-12 20:16N 38°24' W 000°21'0 0.4
2016-Jul-12 19:31N 38°24' W 000°21'0 0.2
2016-Jul-12 18:21N 38°24' W 000°20'7 6.1
2016-Jul-12 17:15N 38°22' W 000°12'6 8.6
2016-Jul-12 16:32N 38°19' W 000°05'0 0.4
2016-Jul-12 15:33N 38°20' W 000°05'7 7.0
2016-Jul-12 14:33N 38°14' E 000°00'3 3.3
2016-Jul-12 13:32N 38°11' E 000°04'8 8.0
2016-Jul-12 12:33N 38°16' W 000°05'1010.1
2016-Jul-12 11:32N 38°21' W 000°16'5 5.4
2016-Jul-12 10:33N 38°27' W 000°17'3 2.6
2016-Jul-12 09:33N 38°28' W 000°14'18 6.2
2016-Jul-12 06:32N 38°19' E 000°07'5 5.5
2016-Jul-12 05:33N 38°16' E 000°13'1 1.2
2016-Jul-12 04:31N 38°17' E 000°12'1 0.5
2016-Jul-12 03:31N 38°17' E 000°12'2 1.9
2016-Jul-12 02:21N 38°19' E 000°11'5 6.5
2016-Jul-12 01:33N 38°24' E 000°10'5 5.1
2016-Jul-12 00:33N 38°29' E 000°10'7 6.7
2016-Jul-11 23:33N 38°36' E 000°08'2 2.1
2016-Jul-11 22:31N 38°38' E 000°09'1 1.1
2016-Jul-11 21:33N 38°37' E 000°08'10 9.8
2016-Jul-11 20:33N 38°27' E 000°09'8 7.4
2016-Jul-11 19:24N 38°23' E 000°18'1 1.3
2016-Jul-11 18:33N 38°23' E 000°17'1010.1
2016-Jul-11 17:33N 38°29' E 000°06'8 7.6
2016-Jul-11 16:33N 38°34' W 000°01'7 7.1
2016-Jul-11 15:33N 38°38' E 000°07'9 9.5
2016-Jul-11 14:33N 38°33' E 000°17'6 5.6
2016-Jul-11 13:33N 38°31' E 000°24'4 3.7
2016-Jul-11 12:33N 38°28' E 000°21'4 3.7
2016-Jul-11 11:32N 38°31' E 000°23'4 3.6
2016-Jul-11 10:33N 38°30' E 000°28'8 8.0
2016-Jul-11 09:33N 38°38' E 000°25'10 9.7
2016-Jul-11 08:31N 38°44' E 000°15'0 0.4
2016-Jul-11 07:30N 38°44' E 000°15'0 0.1
2016-Jul-11 06:33N 38°44' E 000°15'1 0.3
2016-Jul-11 03:31N 38°43' E 000°15'12 1.6
2016-Jul-10 19:32N 38°56' E 000°12'9 8.8
2016-Jul-10 18:28N 38°52' E 000°24'5 5.2
2016-Jul-10 17:32N 38°48' E 000°27'6 4.1
2016-Jul-10 16:07N 38°45' E 000°21'6 3.8
2016-Jul-10 14:30N 38°51' E 000°23'11 3.8
2016-Jul-10 11:30N 38°54' E 000°09'34 1.3
2016-Jul-09 08:22N 39°24' W 000°13'7 8.9
2016-Jul-09 07:33N 39°31' W 000°14'25 2.3
2016-Jul-08 20:32N 39°45' E 000°13'8 7.8
2016-Jul-08 19:33N 39°43' E 000°03'8 7.5
2016-Jul-08 18:30N 39°40' W 000°06'5 1.5
2016-Jul-08 15:05N 39°35' W 000°03'8 2.7
2016-Jul-08 12:06N 39°41' E 000°04'5 9.7
2016-Jul-08 11:33N 39°44' W 000°01'8 7.2
2016-Jul-08 10:23N 39°52' E 000°01'  

Dump ship's entire track history